Etusivu
METAR-TAF:

METAR-TAF

Lentoasemat :

North Battleford, Saskatchewan, Kanada

Leveyspiiri: 52-46N, Pituuspiiri: 108-15W, korkeus merenpinnasta: 548 m

Tämänhetkinen sää

Tämä raportti tehtiin 40 minuuttia sitten, kello 19.00 UTC
Tuuli 9 kn lännestä
Lämpötila 7°C
Kosteus 53%
Ilmanpaine 1019 hPa
Näkyvyys: 14.5 km
selkeää

METAR: CYQW 191900Z AUTO 26009KT 9SM CLR 07/M02 A3008 RMK SLP213

Aika: 13:40 (19:40 UTC)

Sääennuste

Tämä raportti tehtiin 2 tuntia ja 2 minuuttia sitten, kello 17.38 UTC
Ennuste voimassa 19. päivästä klo 18 UTC - 20. päivään klo 06 UTC
Tuuli 8 kn lännestä
Näkyvyys: 10 km
selkeää
Tulossa
19. päivästä klo 18 UTC - 19. päivään klo 20 UTC
Tuuli 12 kn lännestä/luoteesta
Tulossa
19. päivästä klo 23 UTC - 20. päivään klo 01 UTC
Tuuli 8 kn lännestä/luoteesta

TAF: CYQW 191738Z 1918/2006 27008KT P6SM SKC BECMG 1918/1920 30012KT BECMG 1923/2001 29008KT RMK FCST BASED ON AUTO OBS. NXT FCST BY 200000Z

Säähavainnot ja -ennusteet yli 4000 lentoasemalta (METAR- ja TAF-raportit).

Käytössä olevat sääasemat on merkitty karttaan keltaisilla ja punaisilla pisteillä.

Aseta hiiri pisteen päälle nähdäksesi sääaseman nimen.

Klikkaa sitten nähdäksesi säähavainnot ja -ennusteet.

Kartan vaihtaminen: klikkaa mustalla rastilla varustettuja vihreitä pisteitä, niin voit zoomata sisään; viivalla varustettua vihreää pistettä, niin voit zoomata ulos tai vihreitä nuolia, niin pääset viereisille kartoille.


METAR-TAF: